Flint, MI (48554)

7:00 PM EDT on September 17, 2014 (GMT -0400)
Swartz Creek | Change Station
CLOSE
Current Station
Personal Weather Station
Location: Swartz Creek, MI
Elevation: 807 ft
Nearby Weather Stations

Elev 807 ft 42.96 °N, 83.88 °W | Updated 14 minutes ago

Mostly Cloudy
Mostly Cloudy
63.6 °F
Feels Like 63.6 °F
N
3.0
Wind Variable Wind from WSW
Gusts 4.0 mph

Today
High -- | Low -- °F
--% Chance of Precip.
Yesterday
High -- | Low -- °F
Precip. -- in
7:17 AM 7:41 PM
Waning Crescent, 32% visible
Pressure 29.99 in
Visibility 10.0 miles
Clouds Overcast 6500 ft
Dew Point 49 °F
Humidity 60%
Rainfall 0.00 in
Snow Depth Not available.
UV 0 out of 12
Pollen 4.30 out of 12
Ozone Good
PM2.5 Good
Flu Activity Not available.
METAR KFNT 172253Z 26004KT 10SM OVC065 18/07 A2998 RMK AO2 SLP154 T01780067

More Conditions Fewer Conditions

Pressure 29.99 in
Visibility 10.0 miles
Clouds Overcast 6500 ft
Dew Point 49 °F
Humidity 60%
Rainfall 0.00 in
Snow Depth Not available.
UV 0 out of 12
Pollen 4.30 out of 12
Ozone Good
PM2.5 Good
Flu Activity Not available.
METAR KFNT 172253Z 26004KT 10SM OVC065 18/07 A2998 RMK AO2 SLP154 T01780067

More Conditions Fewer Conditions

10-Day Weather Forecast

Almanac

Astronomy

Sep. 17, 2014 Rise Set
Actual Time 7:17 AM EDT 7:41 PM EDT
Civil Twilight 6:48 AM EDT 8:09 PM EDT
Nautical Twilight 6:15 AM EDT 8:43 PM EDT
Astronomical Twilight 5:40 AM EDT 9:17 PM EDT
Moon 1:09 AM EDT 3:56 PM EDT
Length of Visible Light 13h 21m
Length of Day
12h 24m
Tomorrow will be 2m 54s shorter.
Waning Crescent, 32% of the Moon is Illuminated
Today
Waning Crescent
Sep 24
New
Oct 1
First Quarter
Oct 8
Full
Oct 15
Last Quarter

Today's Extremes

State Highs State Lows

Community

WunderPhotos

Upload Photos

1,754,187 photos uploaded!

Nearby

Air Quality

  Air Quality AQ Index Pollutant
Yesterday Good
OZONE
Yesterday Good
PM2.5
Current Good
PM2.5
Current Good
OZONE
Wednesday Good
OZONE
Wednesday Good
PM2.5
Thursday Good
OZONE
Thursday Good
PM2.5
Friday Good
OZONE
Friday Good
PM2.5
Saturday Good
OZONE
Saturday Good
PM2.5

Snow Depth

Station Depth Elevation
No new snow has been reported.

Earthquake Activity

City Distance Mag. Time & Date
No recent earthquake activity has been reported nearby.
Minimum magnitude displayed is 2.5.

Coastal Water Temperatures

Place Temperature
No Stations Reporting

Nearby Weather Stations